Ellen Mcallister — WDG3673 — position and weather

sailwx.info

Track history (hours):
 
Tides and Currents Weather Stations Pressure Air Temp Water Temp Dewpoint Dewpoint Depression Visibility Wind Speed Wind Dir Waves Ship Positions

Ellen Mcallister

Owner: McAllister Towing & Transportation Inc., Staten Island, NY. More information available from US FCC via Universal Licensing System and Coast Guard Vessel Documentation Center.

Last reported at 2018-May-20 11:53 UTC. Time now 2018-May-20 12:02 UTC.
Position N 40°46' W 074°00'.

Length 35 m; draft 5 m.

Type: Tug. MMSI: 366836590.

Date/timePositionNaut miles runAvg speedWind from/ knotsBaromVisibWave heightAir tempDewpointWater temp
2018-May-20 11:53N 40°46' W 074°00'1 2.1
2018-May-20 11:30N 40°45' W 074°01'2 3.5
2018-May-20 11:00N 40°43' W 074°01'3 5.6
2018-May-20 10:30N 40°41' W 074°02'2 3.4
2018-May-20 10:00N 40°40' W 074°04'4 0.4
2018-May-19 22:44N 40°38' W 074°09'2 8.7
2018-May-19 22:30N 40°39' W 074°07'1 2.5
2018-May-19 22:00N 40°39' W 074°05'0 0.4
2018-May-19 21:27N 40°39' W 074°05'0 0.1
2018-May-19 21:00N 40°39' W 074°05'1 1.3
2018-May-19 20:30N 40°39' W 074°04'3 5.1
2018-May-19 20:00N 40°40' W 074°01'0 0.1
2018-May-19 19:30N 40°40' W 074°01'0 0.1
2018-May-19 19:00N 40°40' W 074°01'1 2.1
2018-May-19 18:30N 40°41' W 074°01'2 3.0
2018-May-19 18:00N 40°42' W 074°00'1 2.5
2018-May-19 17:30N 40°42' W 073°59'1 1.1
2018-May-19 17:00N 40°42' W 073°58'0 0.3
2018-May-19 16:30N 40°42' W 073°58'0 0.0
2018-May-19 16:00N 40°42' W 073°58'2 3.2
2018-May-19 15:30N 40°42' W 074°00'510.0
2018-May-19 15:00N 40°39' W 074°06'3 0.7
2018-May-19 11:23N 40°38' W 074°09'1 1.8
2018-May-19 10:51N 40°39' W 074°09'1 1.9
2018-May-19 10:28N 40°40' W 074°08'0 0.1
2018-May-19 10:00N 40°40' W 074°08'2 0.4
2018-May-19 05:27N 40°39' W 074°09'2 1.6
2018-May-19 04:12N 40°39' W 074°11'1 0.3
2018-May-18 23:37N 40°38' W 074°10'1 4.0
2018-May-18 23:23N 40°39' W 074°08'2 5.7
2018-May-18 23:01N 40°41' W 074°08'1 0.5
2018-May-18 21:43N 40°41' W 074°08'210.3
2018-May-18 21:30N 40°39' W 074°09'1 1.1
2018-May-18 20:55N 40°39' W 074°08'1 3.1
2018-May-18 20:27N 40°40' W 074°08'0 0.3
2018-May-18 20:00N 40°40' W 074°09'0 0.1
2018-May-18 19:30N 40°40' W 074°09'0 0.0
2018-May-18 19:00N 40°40' W 074°09'0 0.6
2018-May-18 18:28N 40°40' W 074°09'1 0.5
2018-May-18 16:54N 40°39' W 074°09'2 4.8
2018-May-18 16:30N 40°41' W 074°09'0 0.1
2018-May-18 16:00N 40°41' W 074°09'2 3.3
2018-May-18 15:17N 40°39' W 074°08'2 6.4
2018-May-18 14:55N 40°39' W 074°05'1 3.0
2018-May-18 14:30N 40°39' W 074°04'5 1.2
2018-May-18 10:24N 40°39' W 074°10'3 7.4
2018-May-18 10:00N 40°39' W 074°06'3 5.6
2018-May-18 09:30N 40°38' W 074°03'0 0.3
2018-May-18 08:58N 40°38' W 074°03'3 6.5
2018-May-18 08:29N 40°39' W 074°07'2 0.4
2018-May-18 04:06N 40°38' W 074°09'1 9.7
2018-May-18 04:00N 40°39' W 074°08'4 8.9
2018-May-18 03:30N 40°40' W 074°03'5 9.2
2018-May-18 03:00N 40°45' W 074°01'1 0.3
2018-May-17 23:47N 40°46' W 074°00'3 9.7
2018-May-17 23:30N 40°43' W 074°01'4 8.6
2018-May-17 23:00N 40°39' W 074°04'4 6.7
2018-May-17 22:28N 40°39' W 074°09'2 3.6
2018-May-17 22:00N 40°40' W 074°08'0 0.0
2018-May-17 21:30N 40°40' W 074°08'0 0.0
2018-May-17 21:00N 40°40' W 074°08'0 0.0
2018-May-17 20:30N 40°40' W 074°08'0 0.0
2018-May-17 20:00N 40°40' W 074°08'0 0.0
2018-May-17 19:30N 40°40' W 074°08'0 0.0
2018-May-17 19:00N 40°40' W 074°08'0 0.0
2018-May-17 18:30N 40°40' W 074°08'0 0.0
2018-May-17 18:00N 40°40' W 074°08'0 0.0
2018-May-17 17:30N 40°40' W 074°08'0 0.0
2018-May-17 17:00N 40°40' W 074°08'0 0.0
2018-May-17 15:28N 40°40' W 074°08'0 0.0
2018-May-17 14:57N 40°40' W 074°08'0 0.0
2018-May-17 14:29N 40°40' W 074°08'0 0.0
2018-May-17 14:00N 40°40' W 074°08'0 0.0
2018-May-17 13:30N 40°40' W 074°08'0 0.1
2018-May-17 12:58N 40°40' W 074°08'2 0.7
2018-May-17 09:44N 40°39' W 074°10'2 7.7
2018-May-17 09:30N 40°39' W 074°08'2 4.5
2018-May-17 09:00N 40°39' W 074°05'2 3.0
2018-May-17 08:30N 40°38' W 074°04'2 3.1
2018-May-17 08:00N 40°39' W 074°05'3 1.8
2018-May-17 06:33N 40°40' W 074°09'1 3.7
2018-May-17 06:22N 40°40' W 074°08'0 0.0
2018-May-17 05:52N 40°40' W 074°08'2 3.9
2018-May-17 05:27N 40°39' W 074°09'3 5.7
2018-May-17 04:58N 40°39' W 074°05'1 1.2
2018-May-17 04:19N 40°39' W 074°06'0 0.6
2018-May-17 03:50N 40°39' W 074°07'0 0.4
2018-May-17 03:21N 40°39' W 074°07'1 4.1
2018-May-17 03:00N 40°38' W 074°09'2 3.9
2018-May-17 02:29N 40°40' W 074°08'0 0.5
2018-May-17 01:53N 40°41' W 074°09'1 1.5
2018-May-17 01:29N 40°40' W 074°08'2 3.4
2018-May-17 01:00N 40°39' W 074°07'3 6.5
2018-May-17 00:30N 40°38' W 074°03'2 3.4
2018-May-16 23:58N 40°39' W 074°05'3 4.0
2018-May-16 23:07N 40°38' W 074°10'2 7.4
2018-May-16 22:54N 40°40' W 074°09'1 1.5
2018-May-16 22:29N 40°40' W 074°08'0 0.0
2018-May-16 22:00N 40°40' W 074°08'0 0.0
2018-May-16 21:30N 40°40' W 074°08'1 2.3
2018-May-16 21:00N 40°39' W 074°09'2 3.5
2018-May-16 20:26N 40°39' W 074°06'2 5.0
2018-May-16 20:00N 40°38' W 074°03'1 2.2
2018-May-16 19:29N 40°37' W 074°03'0 0.8
2018-May-16 18:56N 40°37' W 074°03'1 3.0
2018-May-16 18:30N 40°38' W 074°04'4 8.0
2018-May-16 17:59N 40°38' W 074°09'0 0.1
2018-May-16 16:48N 40°38' W 074°09'3 8.8
2018-May-16 16:30N 40°39' W 074°06'2 3.1
2018-May-16 16:00N 40°40' W 074°04'1 2.0
2018-May-16 15:30N 40°41' W 074°04'0 0.7
2018-May-16 15:00N 40°41' W 074°04'1 2.4
2018-May-16 14:30N 40°40' W 074°03'2 4.1
2018-May-16 13:58N 40°38' W 074°04'2 3.7
2018-May-16 13:30N 40°39' W 074°05'1 1.0
2018-May-16 13:00N 40°39' W 074°06'0 0.7
2018-May-16 12:30N 40°39' W 074°06'0 0.2
2018-May-16 11:55N 40°39' W 074°06'2 3.8
2018-May-16 11:30N 40°39' W 074°04'1 1.9
2018-May-16 11:00N 40°40' W 074°04'0 0.3
2018-May-16 10:30N 40°40' W 074°04'0 0.0
2018-May-16 10:00N 40°40' W 074°04'2 4.1
2018-May-16 09:30N 40°41' W 074°02'3 5.8
2018-May-16 09:00N 40°42' W 073°58'0 0.0
2018-May-16 08:30N 40°42' W 073°58'1 2.3
2018-May-16 08:00N 40°42' W 073°60'4 8.8
2018-May-16 07:30N 40°39' W 074°04'3 6.2
2018-May-16 06:59N 40°40' W 074°08'0 0.1
2018-May-16 06:30N 40°40' W 074°08'0 0.0
2018-May-16 06:00N 40°40' W 074°08'0 0.0
2018-May-16 05:30N 40°40' W 074°08'0 0.0
2018-May-16 05:00N 40°40' W 074°08'0 0.0
2018-May-16 04:30N 40°40' W 074°08'0 0.0
2018-May-16 04:00N 40°40' W 074°08'0 0.0
2018-May-16 03:30N 40°40' W 074°08'0 0.0
2018-May-16 03:00N 40°40' W 074°08'0 0.0
2018-May-16 02:30N 40°40' W 074°08'0 0.0
2018-May-16 02:00N 40°40' W 074°08'0 0.0
2018-May-16 01:30N 40°40' W 074°08'0 0.0
2018-May-16 01:00N 40°40' W 074°08'0 0.0
2018-May-16 00:30N 40°40' W 074°08'0 0.0
2018-May-16 00:00N 40°40' W 074°08'0 0.0
2018-May-15 23:30N 40°40' W 074°08'0 0.0
2018-May-15 22:58N 40°40' W 074°08'0 0.0
2018-May-15 22:30N 40°40' W 074°08'0 0.2
2018-May-15 21:35N 40°41' W 074°09'0 0.0
2018-May-15 21:20N 40°41' W 074°09'0 0.6
2018-May-15 21:00N 40°40' W 074°08'2 2.6
2018-May-15 20:12N 40°38' W 074°09'2 9.4
2018-May-15 19:59N 40°39' W 074°07'2 4.1
2018-May-15 19:29N 40°38' W 074°04'2 3.6
2018-May-15 19:00N 40°39' W 074°06'0 0.4
2018-May-15 17:41N 40°39' W 074°07'2 9.4
2018-May-15 17:30N 40°38' W 074°09'0 0.2
2018-May-15 16:14N 40°38' W 074°09'1 4.4
2018-May-15 15:59N 40°39' W 074°09'1 2.0
2018-May-15 15:29N 40°40' W 074°08'2 3.3
2018-May-15 14:55N 40°39' W 074°09'2 5.9
2018-May-15 14:30N 40°39' W 074°06'2 4.9
2018-May-15 14:00N 40°38' W 074°03'1 1.8
2018-May-15 13:30N 40°38' W 074°04'6 3.8
2018-May-15 12:00N 40°39' W 074°11'0 0.0
2018-May-14 22:09N 40°38' W 074°12'1 0.9
2018-May-14 20:39N 40°38' W 074°10'1 9.3
2018-May-14 20:30N 40°39' W 074°08'5 9.2
2018-May-14 20:00N 40°40' W 074°02'4 7.3
2018-May-14 19:30N 40°43' W 073°58'0 0.4
2018-May-14 19:00N 40°42' W 073°58'3 5.2
2018-May-14 18:30N 40°41' W 074°02'4 8.3
2018-May-14 18:00N 40°39' W 074°06'2 0.4
2018-May-14 12:11N 40°39' W 074°09'2 9.4
2018-May-14 12:00N 40°39' W 074°07'2 3.5
2018-May-14 11:30N 40°40' W 074°09'1 1.1
2018-May-14 11:00N 40°40' W 074°08'1 1.1
2018-May-14 10:30N 40°41' W 074°09'0 0.7
2018-May-14 10:00N 40°41' W 074°08'2 3.1
2018-May-14 09:30N 40°39' W 074°09'3 5.1
2018-May-14 09:00N 40°39' W 074°05'1 2.6
2018-May-14 08:30N 40°40' W 074°04'0 0.2
2018-May-14 08:00N 40°40' W 074°04'1 2.7
2018-May-14 07:27N 40°41' W 074°02'3 7.9
2018-May-14 07:00N 40°42' W 073°59'0 0.0
2018-May-14 06:30N 40°42' W 073°59'0 0.0
2018-May-14 06:00N 40°42' W 073°59'0 0.0
2018-May-14 05:30N 40°42' W 073°59'0 0.0
2018-May-14 05:00N 40°42' W 073°59'0 0.0
2018-May-14 04:30N 40°42' W 073°59'0 0.0
2018-May-14 04:00N 40°42' W 073°59'0 0.0
2018-May-14 03:31N 40°42' W 073°59'0 0.0
2018-May-14 03:00N 40°42' W 073°59'0 0.0
2018-May-14 02:30N 40°42' W 073°59'0 0.0
2018-May-14 02:00N 40°42' W 073°59'0 0.0
2018-May-14 01:30N 40°42' W 073°59'0 0.3
2018-May-14 01:00N 40°43' W 073°59'1 1.7
2018-May-14 00:30N 40°42' W 073°60'2 4.9
2018-May-14 00:00N 40°41' W 074°02'2 4.4
2018-May-13 23:30N 40°39' W 074°04'4 7.8
2018-May-13 23:00N 40°39' W 074°09'2 3.1
2018-May-13 22:30N 40°40' W 074°08'0 0.0
2018-May-13 21:58N 40°40' W 074°08'0 0.0
2018-May-13 21:30N 40°40' W 074°08'0 0.0
2018-May-13 21:00N 40°40' W 074°08'0 0.0
2018-May-13 20:30N 40°40' W 074°08'0 0.0
2018-May-13 20:00N 40°40' W 074°08'0 0.0
2018-May-13 19:30N 40°40' W 074°08'0 0.0
2018-May-13 18:59N 40°40' W 074°08'0 0.0
2018-May-13 18:30N 40°40' W 074°08'0 0.0
2018-May-13 17:57N 40°40' W 074°08'0 0.0
2018-May-13 17:30N 40°40' W 074°08'0 0.0
2018-May-13 17:00N 40°40' W 074°08'0 0.0
2018-May-13 16:30N 40°40' W 074°08'0 0.0
2018-May-13 16:00N 40°40' W 074°08'0 0.0
2018-May-13 15:30N 40°40' W 074°08'0 0.0
2018-May-13 15:00N 40°40' W 074°08'0 0.0
2018-May-13 14:30N 40°40' W 074°08'3 4.1
2018-May-13 13:48N 40°39' W 074°11'1 0.0
2018-May-12 16:53N 40°39' W 074°10'2 3.8
2018-May-12 16:19N 40°40' W 074°08'0 0.0
2018-May-12 15:49N 40°40' W 074°08'0 0.0
2018-May-12 15:30N 40°40' W 074°08'0 0.0
2018-May-12 15:00N 40°40' W 074°08'0 0.0
2018-May-12 14:30N 40°40' W 074°08'0 0.1
2018-May-12 14:00N 40°40' W 074°08'0 0.0
2018-May-12 13:30N 40°40' W 074°08'0 0.0
2018-May-12 12:34N 40°40' W 074°08'0 0.0
2018-May-12 12:27N 40°40' W 074°08'0 0.0
2018-May-12 12:01N 40°40' W 074°08'0 0.0
2018-May-12 11:30N 40°40' W 074°08'0 0.0
2018-May-12 11:00N 40°40' W 074°08'1 1.4
2018-May-12 10:09N 40°42' W 074°08'1 4.6
2018-May-12 09:59N 40°41' W 074°08'2 5.1
2018-May-12 09:30N 40°39' W 074°08'2 0.3
2018-May-12 00:07N 40°39' W 074°11'1 6.9
2018-May-12 00:00N 40°39' W 074°10'4 1.1
2018-May-11 20:36N 40°39' W 074°05'1 9.8
2018-May-11 20:30N 40°39' W 074°04'2 4.5
2018-May-11 20:00N 40°40' W 074°01'0 0.1
2018-May-11 19:29N 40°40' W 074°01'0 0.0
2018-May-11 19:00N 40°40' W 074°01'0 0.0
2018-May-11 18:30N 40°40' W 074°01'0 0.0
2018-May-11 18:00N 40°40' W 074°01'0 0.0
2018-May-11 17:30N 40°40' W 074°01'0 0.0
2018-May-11 17:00N 40°40' W 074°01'2 4.1
2018-May-11 16:23N 40°39' W 074°04'3 5.7
2018-May-11 15:47N 40°40' W 074°09'3 4.1
2018-May-11 15:08N 40°39' W 074°05'1 9.7
2018-May-11 14:59N 40°40' W 074°03'2 3.7
2018-May-11 14:30N 40°40' W 074°01'2 3.1
2018-May-11 14:00N 40°41' W 074°01'0 0.2
2018-May-11 13:30N 40°41' W 074°01'0 0.2
2018-May-11 13:00N 40°41' W 074°01'4 1.2
2018-May-11 09:20N 40°45' W 074°01'3 9.8
2018-May-11 09:00N 40°42' W 074°02'5 0.5
2018-May-10 23:26N 40°41' W 074°08'3 4.4
2018-May-10 22:51N 40°39' W 074°07'0 0.0
2018-May-10 17:10N 40°39' W 074°07'2 1.8
2018-May-10 16:10N 40°40' W 074°08'0 0.5
2018-May-10 16:00N 40°40' W 074°08'3 1.3
2018-May-10 13:25N 40°39' W 074°04'1 3.3
2018-May-10 12:58N 40°39' W 074°06'2 4.2
2018-May-10 12:30N 40°40' W 074°09'1 1.7
2018-May-10 11:56N 40°41' W 074°09'  
Track history (hours):
 
Tides and Currents Weather Stations Pressure Air Temp Water Temp Dewpoint Dewpoint Depression Visibility Wind Speed Wind Dir Waves Ship Positions

Ellen Mcallister

Owner: McAllister Towing & Transportation Inc., Staten Island, NY. More information available from US FCC via Universal Licensing System and Coast Guard Vessel Documentation Center.

Last reported at 2018-May-20 11:53 UTC. Time now 2018-May-20 12:02 UTC.
Position N 40°46' W 074°00'.

Length 35 m; draft 5 m.

Type: Tug. MMSI: 366836590.

Date/timePositionNaut miles runAvg speedWind from/ knotsBaromVisibWave heightAir tempDewpointWater temp
2018-May-20 11:53N 40°46' W 074°00'1 2.1
2018-May-20 11:30N 40°45' W 074°01'2 3.5
2018-May-20 11:00N 40°43' W 074°01'3 5.6
2018-May-20 10:30N 40°41' W 074°02'2 3.4
2018-May-20 10:00N 40°40' W 074°04'4 0.4
2018-May-19 22:44N 40°38' W 074°09'2 8.7
2018-May-19 22:30N 40°39' W 074°07'1 2.5
2018-May-19 22:00N 40°39' W 074°05'0 0.4
2018-May-19 21:27N 40°39' W 074°05'0 0.1
2018-May-19 21:00N 40°39' W 074°05'1 1.3
2018-May-19 20:30N 40°39' W 074°04'3 5.1
2018-May-19 20:00N 40°40' W 074°01'0 0.1
2018-May-19 19:30N 40°40' W 074°01'0 0.1
2018-May-19 19:00N 40°40' W 074°01'1 2.1
2018-May-19 18:30N 40°41' W 074°01'2 3.0
2018-May-19 18:00N 40°42' W 074°00'1 2.5
2018-May-19 17:30N 40°42' W 073°59'1 1.1
2018-May-19 17:00N 40°42' W 073°58'0 0.3
2018-May-19 16:30N 40°42' W 073°58'0 0.0
2018-May-19 16:00N 40°42' W 073°58'2 3.2
2018-May-19 15:30N 40°42' W 074°00'510.0
2018-May-19 15:00N 40°39' W 074°06'3 0.7
2018-May-19 11:23N 40°38' W 074°09'1 1.8
2018-May-19 10:51N 40°39' W 074°09'1 1.9
2018-May-19 10:28N 40°40' W 074°08'0 0.1
2018-May-19 10:00N 40°40' W 074°08'2 0.4
2018-May-19 05:27N 40°39' W 074°09'2 1.6
2018-May-19 04:12N 40°39' W 074°11'1 0.3
2018-May-18 23:37N 40°38' W 074°10'1 4.0
2018-May-18 23:23N 40°39' W 074°08'2 5.7
2018-May-18 23:01N 40°41' W 074°08'1 0.5
2018-May-18 21:43N 40°41' W 074°08'210.3
2018-May-18 21:30N 40°39' W 074°09'1 1.1
2018-May-18 20:55N 40°39' W 074°08'1 3.1
2018-May-18 20:27N 40°40' W 074°08'0 0.3
2018-May-18 20:00N 40°40' W 074°09'0 0.1
2018-May-18 19:30N 40°40' W 074°09'0 0.0
2018-May-18 19:00N 40°40' W 074°09'0 0.6
2018-May-18 18:28N 40°40' W 074°09'1 0.5
2018-May-18 16:54N 40°39' W 074°09'2 4.8
2018-May-18 16:30N 40°41' W 074°09'0 0.1
2018-May-18 16:00N 40°41' W 074°09'2 3.3
2018-May-18 15:17N 40°39' W 074°08'2 6.4
2018-May-18 14:55N 40°39' W 074°05'1 3.0
2018-May-18 14:30N 40°39' W 074°04'5 1.2
2018-May-18 10:24N 40°39' W 074°10'3 7.4
2018-May-18 10:00N 40°39' W 074°06'3 5.6
2018-May-18 09:30N 40°38' W 074°03'0 0.3
2018-May-18 08:58N 40°38' W 074°03'3 6.5
2018-May-18 08:29N 40°39' W 074°07'2 0.4
2018-May-18 04:06N 40°38' W 074°09'1 9.7
2018-May-18 04:00N 40°39' W 074°08'4 8.9
2018-May-18 03:30N 40°40' W 074°03'5 9.2
2018-May-18 03:00N 40°45' W 074°01'1 0.3
2018-May-17 23:47N 40°46' W 074°00'3 9.7
2018-May-17 23:30N 40°43' W 074°01'4 8.6
2018-May-17 23:00N 40°39' W 074°04'4 6.7
2018-May-17 22:28N 40°39' W 074°09'2 3.6
2018-May-17 22:00N 40°40' W 074°08'0 0.0
2018-May-17 21:30N 40°40' W 074°08'0 0.0
2018-May-17 21:00N 40°40' W 074°08'0 0.0
2018-May-17 20:30N 40°40' W 074°08'0 0.0
2018-May-17 20:00N 40°40' W 074°08'0 0.0
2018-May-17 19:30N 40°40' W 074°08'0 0.0
2018-May-17 19:00N 40°40' W 074°08'0 0.0
2018-May-17 18:30N 40°40' W 074°08'0 0.0
2018-May-17 18:00N 40°40' W 074°08'0 0.0
2018-May-17 17:30N 40°40' W 074°08'0 0.0
2018-May-17 17:00N 40°40' W 074°08'0 0.0
2018-May-17 15:28N 40°40' W 074°08'0 0.0
2018-May-17 14:57N 40°40' W 074°08'0 0.0
2018-May-17 14:29N 40°40' W 074°08'0 0.0
2018-May-17 14:00N 40°40' W 074°08'0 0.0
2018-May-17 13:30N 40°40' W 074°08'0 0.1
2018-May-17 12:58N 40°40' W 074°08'2 0.7
2018-May-17 09:44N 40°39' W 074°10'2 7.7
2018-May-17 09:30N 40°39' W 074°08'2 4.5
2018-May-17 09:00N 40°39' W 074°05'2 3.0
2018-May-17 08:30N 40°38' W 074°04'2 3.1
2018-May-17 08:00N 40°39' W 074°05'3 1.8
2018-May-17 06:33N 40°40' W 074°09'1 3.7
2018-May-17 06:22N 40°40' W 074°08'0 0.0
2018-May-17 05:52N 40°40' W 074°08'2 3.9
2018-May-17 05:27N 40°39' W 074°09'3 5.7
2018-May-17 04:58N 40°39' W 074°05'1 1.2
2018-May-17 04:19N 40°39' W 074°06'0 0.6
2018-May-17 03:50N 40°39' W 074°07'0 0.4
2018-May-17 03:21N 40°39' W 074°07'1 4.1
2018-May-17 03:00N 40°38' W 074°09'2 3.9
2018-May-17 02:29N 40°40' W 074°08'0 0.5
2018-May-17 01:53N 40°41' W 074°09'1 1.5
2018-May-17 01:29N 40°40' W 074°08'2 3.4
2018-May-17 01:00N 40°39' W 074°07'3 6.5
2018-May-17 00:30N 40°38' W 074°03'2 3.4
2018-May-16 23:58N 40°39' W 074°05'3 4.0
2018-May-16 23:07N 40°38' W 074°10'2 7.4
2018-May-16 22:54N 40°40' W 074°09'1 1.5
2018-May-16 22:29N 40°40' W 074°08'0 0.0
2018-May-16 22:00N 40°40' W 074°08'0 0.0
2018-May-16 21:30N 40°40' W 074°08'1 2.3
2018-May-16 21:00N 40°39' W 074°09'2 3.5
2018-May-16 20:26N 40°39' W 074°06'2 5.0
2018-May-16 20:00N 40°38' W 074°03'1 2.2
2018-May-16 19:29N 40°37' W 074°03'0 0.8
2018-May-16 18:56N 40°37' W 074°03'1 3.0
2018-May-16 18:30N 40°38' W 074°04'4 8.0
2018-May-16 17:59N 40°38' W 074°09'0 0.1
2018-May-16 16:48N 40°38' W 074°09'3 8.8
2018-May-16 16:30N 40°39' W 074°06'2 3.1
2018-May-16 16:00N 40°40' W 074°04'1 2.0
2018-May-16 15:30N 40°41' W 074°04'0 0.7
2018-May-16 15:00N 40°41' W 074°04'1 2.4
2018-May-16 14:30N 40°40' W 074°03'2 4.1
2018-May-16 13:58N 40°38' W 074°04'2 3.7
2018-May-16 13:30N 40°39' W 074°05'1 1.0
2018-May-16 13:00N 40°39' W 074°06'0 0.7
2018-May-16 12:30N 40°39' W 074°06'0 0.2
2018-May-16 11:55N 40°39' W 074°06'2 3.8
2018-May-16 11:30N 40°39' W 074°04'1 1.9
2018-May-16 11:00N 40°40' W 074°04'0 0.3
2018-May-16 10:30N 40°40' W 074°04'0 0.0
2018-May-16 10:00N 40°40' W 074°04'2 4.1
2018-May-16 09:30N 40°41' W 074°02'3 5.8
2018-May-16 09:00N 40°42' W 073°58'0 0.0
2018-May-16 08:30N 40°42' W 073°58'1 2.3
2018-May-16 08:00N 40°42' W 073°60'4 8.8
2018-May-16 07:30N 40°39' W 074°04'3 6.2
2018-May-16 06:59N 40°40' W 074°08'0 0.1
2018-May-16 06:30N 40°40' W 074°08'0 0.0
2018-May-16 06:00N 40°40' W 074°08'0 0.0
2018-May-16 05:30N 40°40' W 074°08'0 0.0
2018-May-16 05:00N 40°40' W 074°08'0 0.0
2018-May-16 04:30N 40°40' W 074°08'0 0.0
2018-May-16 04:00N 40°40' W 074°08'0 0.0
2018-May-16 03:30N 40°40' W 074°08'0 0.0
2018-May-16 03:00N 40°40' W 074°08'0 0.0
2018-May-16 02:30N 40°40' W 074°08'0 0.0
2018-May-16 02:00N 40°40' W 074°08'0 0.0
2018-May-16 01:30N 40°40' W 074°08'0 0.0
2018-May-16 01:00N 40°40' W 074°08'0 0.0
2018-May-16 00:30N 40°40' W 074°08'0 0.0
2018-May-16 00:00N 40°40' W 074°08'0 0.0
2018-May-15 23:30N 40°40' W 074°08'0 0.0
2018-May-15 22:58N 40°40' W 074°08'0 0.0
2018-May-15 22:30N 40°40' W 074°08'0 0.2
2018-May-15 21:35N 40°41' W 074°09'0 0.0
2018-May-15 21:20N 40°41' W 074°09'0 0.6
2018-May-15 21:00N 40°40' W 074°08'2 2.6
2018-May-15 20:12N 40°38' W 074°09'2 9.4
2018-May-15 19:59N 40°39' W 074°07'2 4.1
2018-May-15 19:29N 40°38' W 074°04'2 3.6
2018-May-15 19:00N 40°39' W 074°06'0 0.4
2018-May-15 17:41N 40°39' W 074°07'2 9.4
2018-May-15 17:30N 40°38' W 074°09'0 0.2
2018-May-15 16:14N 40°38' W 074°09'1 4.4
2018-May-15 15:59N 40°39' W 074°09'1 2.0
2018-May-15 15:29N 40°40' W 074°08'2 3.3
2018-May-15 14:55N 40°39' W 074°09'2 5.9
2018-May-15 14:30N 40°39' W 074°06'2 4.9
2018-May-15 14:00N 40°38' W 074°03'1 1.8
2018-May-15 13:30N 40°38' W 074°04'6 3.8
2018-May-15 12:00N 40°39' W 074°11'0 0.0
2018-May-14 22:09N 40°38' W 074°12'1 0.9
2018-May-14 20:39N 40°38' W 074°10'1 9.3
2018-May-14 20:30N 40°39' W 074°08'5 9.2
2018-May-14 20:00N 40°40' W 074°02'4 7.3
2018-May-14 19:30N 40°43' W 073°58'0 0.4
2018-May-14 19:00N 40°42' W 073°58'3 5.2
2018-May-14 18:30N 40°41' W 074°02'4 8.3
2018-May-14 18:00N 40°39' W 074°06'2 0.4
2018-May-14 12:11N 40°39' W 074°09'2 9.4
2018-May-14 12:00N 40°39' W 074°07'2 3.5
2018-May-14 11:30N 40°40' W 074°09'1 1.1
2018-May-14 11:00N 40°40' W 074°08'1 1.1
2018-May-14 10:30N 40°41' W 074°09'0 0.7
2018-May-14 10:00N 40°41' W 074°08'2 3.1
2018-May-14 09:30N 40°39' W 074°09'3 5.1
2018-May-14 09:00N 40°39' W 074°05'1 2.6
2018-May-14 08:30N 40°40' W 074°04'0 0.2
2018-May-14 08:00N 40°40' W 074°04'1 2.7
2018-May-14 07:27N 40°41' W 074°02'3 7.9
2018-May-14 07:00N 40°42' W 073°59'0 0.0
2018-May-14 06:30N 40°42' W 073°59'0 0.0
2018-May-14 06:00N 40°42' W 073°59'0 0.0
2018-May-14 05:30N 40°42' W 073°59'0 0.0
2018-May-14 05:00N 40°42' W 073°59'0 0.0
2018-May-14 04:30N 40°42' W 073°59'0 0.0
2018-May-14 04:00N 40°42' W 073°59'0 0.0
2018-May-14 03:31N 40°42' W 073°59'0 0.0
2018-May-14 03:00N 40°42' W 073°59'0 0.0
2018-May-14 02:30N 40°42' W 073°59'0 0.0
2018-May-14 02:00N 40°42' W 073°59'0 0.0
2018-May-14 01:30N 40°42' W 073°59'0 0.3
2018-May-14 01:00N 40°43' W 073°59'1 1.7
2018-May-14 00:30N 40°42' W 073°60'2 4.9
2018-May-14 00:00N 40°41' W 074°02'2 4.4
2018-May-13 23:30N 40°39' W 074°04'4 7.8
2018-May-13 23:00N 40°39' W 074°09'2 3.1
2018-May-13 22:30N 40°40' W 074°08'0 0.0
2018-May-13 21:58N 40°40' W 074°08'0 0.0
2018-May-13 21:30N 40°40' W 074°08'0 0.0
2018-May-13 21:00N 40°40' W 074°08'0 0.0
2018-May-13 20:30N 40°40' W 074°08'0 0.0
2018-May-13 20:00N 40°40' W 074°08'0 0.0
2018-May-13 19:30N 40°40' W 074°08'0 0.0
2018-May-13 18:59N 40°40' W 074°08'0 0.0
2018-May-13 18:30N 40°40' W 074°08'0 0.0
2018-May-13 17:57N 40°40' W 074°08'0 0.0
2018-May-13 17:30N 40°40' W 074°08'0 0.0
2018-May-13 17:00N 40°40' W 074°08'0 0.0
2018-May-13 16:30N 40°40' W 074°08'0 0.0
2018-May-13 16:00N 40°40' W 074°08'0 0.0
2018-May-13 15:30N 40°40' W 074°08'0 0.0
2018-May-13 15:00N 40°40' W 074°08'0 0.0
2018-May-13 14:30N 40°40' W 074°08'3 4.1
2018-May-13 13:48N 40°39' W 074°11'1 0.0
2018-May-12 16:53N 40°39' W 074°10'2 3.8
2018-May-12 16:19N 40°40' W 074°08'0 0.0
2018-May-12 15:49N 40°40' W 074°08'0 0.0
2018-May-12 15:30N 40°40' W 074°08'0 0.0
2018-May-12 15:00N 40°40' W 074°08'0 0.0
2018-May-12 14:30N 40°40' W 074°08'0 0.1
2018-May-12 14:00N 40°40' W 074°08'0 0.0
2018-May-12 13:30N 40°40' W 074°08'0 0.0
2018-May-12 12:34N 40°40' W 074°08'0 0.0
2018-May-12 12:27N 40°40' W 074°08'0 0.0
2018-May-12 12:01N 40°40' W 074°08'0 0.0
2018-May-12 11:30N 40°40' W 074°08'0 0.0
2018-May-12 11:00N 40°40' W 074°08'1 1.4
2018-May-12 10:09N 40°42' W 074°08'1 4.6
2018-May-12 09:59N 40°41' W 074°08'2 5.1
2018-May-12 09:30N 40°39' W 074°08'2 0.3
2018-May-12 00:07N 40°39' W 074°11'1 6.9
2018-May-12 00:00N 40°39' W 074°10'4 1.1
2018-May-11 20:36N 40°39' W 074°05'1 9.8
2018-May-11 20:30N 40°39' W 074°04'2 4.5
2018-May-11 20:00N 40°40' W 074°01'0 0.1
2018-May-11 19:29N 40°40' W 074°01'0 0.0
2018-May-11 19:00N 40°40' W 074°01'0 0.0
2018-May-11 18:30N 40°40' W 074°01'0 0.0
2018-May-11 18:00N 40°40' W 074°01'0 0.0
2018-May-11 17:30N 40°40' W 074°01'0 0.0
2018-May-11 17:00N 40°40' W 074°01'2 4.1
2018-May-11 16:23N 40°39' W 074°04'3 5.7
2018-May-11 15:47N 40°40' W 074°09'3 4.1
2018-May-11 15:08N 40°39' W 074°05'1 9.7
2018-May-11 14:59N 40°40' W 074°03'2 3.7
2018-May-11 14:30N 40°40' W 074°01'2 3.1
2018-May-11 14:00N 40°41' W 074°01'0 0.2
2018-May-11 13:30N 40°41' W 074°01'0 0.2
2018-May-11 13:00N 40°41' W 074°01'4 1.2
2018-May-11 09:20N 40°45' W 074°01'3 9.8
2018-May-11 09:00N 40°42' W 074°02'5 0.5
2018-May-10 23:26N 40°41' W 074°08'3 4.4
2018-May-10 22:51N 40°39' W 074°07'0 0.0
2018-May-10 17:10N 40°39' W 074°07'2 1.8
2018-May-10 16:10N 40°40' W 074°08'0 0.5
2018-May-10 16:00N 40°40' W 074°08'3 1.3
2018-May-10 13:25N 40°39' W 074°04'1 3.3
2018-May-10 12:58N 40°39' W 074°06'2 4.2
2018-May-10 12:30N 40°40' W 074°09'1 1.7
2018-May-10 11:56N 40°41' W 074°09'  

Dump ship's entire track history